Time;durP1;ratioP1;P1;durP2;ratioP2;P2;SDS_P1;SDS_P2;PMS_P1;PMS_P2;Temp;Humidity;BMP_temperature;BMP_pressure;BME280_temperature;BME280_humidity;BME280_pressure;Samples;Min_cycle;Max_cycle;Signal;HPM_P1;HPM_P2
2023/08/20 00:01:25;;;;;;;11.18;2.38;;;15.90;99.90;;;;;;5061276;28;20041;-67
2023/08/20 00:03:51;;;;;;;10.48;2.60;;;15.80;99.90;;;;;;5061387;28;20049;-67
2023/08/20 00:06:17;;;;;;;8.27;2.58;;;15.80;99.90;;;;;;5070873;28;20605;-67
2023/08/20 00:08:43;;;;;;;9.32;2.75;;;15.80;99.90;;;;;;5046152;28;20696;-66
2023/08/20 00:11:09;;;;;;;10.50;3.45;;;15.80;99.90;;;;;;5063852;28;20040;-67
2023/08/20 00:13:35;;;;;;;6.82;2.33;;;15.70;99.90;;;;;;5060069;28;20057;-66
2023/08/20 00:16:02;;;;;;;8.25;2.63;;;15.70;99.90;;;;;;5065388;28;20067;-66
2023/08/20 00:18:27;;;;;;;8.90;2.83;;;15.60;99.90;;;;;;5070364;28;20395;-66
2023/08/20 00:20:54;;;;;;;9.68;2.75;;;15.50;99.90;;;;;;5042885;28;20045;-66
2023/08/20 00:23:21;;;;;;;6.03;2.15;;;15.50;99.90;;;;;;5060705;28;20106;-67
2023/08/20 00:25:46;;;;;;;6.63;2.50;;;15.40;99.90;;;;;;5063698;28;20037;-66
2023/08/20 00:28:12;;;;;;;7.53;2.50;;;15.40;99.90;;;;;;5053748;28;20558;-67
2023/08/20 00:30:38;;;;;;;14.07;3.08;;;15.20;99.90;;;;;;5061405;28;20044;-66
2023/08/20 00:33:03;;;;;;;11.43;3.30;;;15.40;99.90;;;;;;5042592;28;20036;-67
2023/08/20 00:35:29;;;;;;;12.20;3.30;;;15.40;99.90;;;;;;5060258;28;20045;-66
2023/08/20 00:37:55;;;;;;;14.55;3.47;;;15.40;99.90;;;;;;5069329;28;20040;-67
2023/08/20 00:40:20;;;;;;;12.13;3.25;;;15.40;99.90;;;;;;5065425;28;20091;-66
2023/08/20 00:42:46;;;;;;;8.23;3.35;;;15.40;99.90;;;;;;5060805;28;20131;-66
2023/08/20 00:45:12;;;;;;;8.02;2.90;;;15.40;99.90;;;;;;5062499;28;20048;-67
2023/08/20 00:47:38;;;;;;;10.27;2.90;;;15.40;99.90;;;;;;5062833;28;20048;-66
2023/08/20 00:50:06;;;;;;;11.68;2.75;;;15.40;99.90;;;;;;5062736;28;20430;-66
2023/08/20 00:52:33;;;;;;;7.78;2.20;;;15.40;99.90;;;;;;5063262;28;20101;-67
2023/08/20 00:54:59;;;;;;;10.25;3.10;;;15.30;99.90;;;;;;5043536;28;20076;-66
2023/08/20 00:57:26;;;;;;;10.57;3.30;;;15.30;99.90;;;;;;5059693;28;20045;-67
2023/08/20 00:59:54;;;;;;;11.23;2.80;;;15.20;99.90;;;;;;5067021;28;20052;-66
2023/08/20 01:02:20;;;;;;;10.45;3.20;;;15.30;99.90;;;;;;5044711;28;20052;-67
2023/08/20 01:04:47;;;;;;;8.30;3.33;;;15.30;99.90;;;;;;5062750;28;20148;-67
2023/08/20 01:07:38;;;;;;;9.40;2.73;;;15.20;99.90;;;;;;5043506;28;20052;-66
2023/08/20 01:10:41;;;;;;;8.90;3.00;;;15.30;99.90;;;;;;5049775;28;20324;-67
2023/08/20 01:13:07;;;;;;;7.85;2.85;;;15.20;99.90;;;;;;5059320;28;20060;-67
2023/08/20 01:15:33;;;;;;;9.23;2.72;;;15.20;99.90;;;;;;5062426;28;20040;-66
2023/08/20 01:17:59;;;;;;;9.23;3.30;;;15.20;99.90;;;;;;5044464;28;20049;-67
2023/08/20 01:20:30;;;;;;;9.50;2.85;;;15.30;99.90;;;;;;5062047;28;20445;-67
2023/08/20 01:23:20;;;;;;;8.10;2.75;;;15.20;99.90;;;;;;5065068;28;20041;-67
2023/08/20 01:25:49;;;;;;;8.30;3.00;;;15.20;99.90;;;;;;5041196;28;20045;-66
2023/08/20 01:28:30;;;;;;;12.20;3.50;;;15.20;99.90;;;;;;5059111;28;20052;-66
2023/08/20 01:30:58;;;;;;;8.05;3.20;;;15.20;99.90;;;;;;5047589;28;20494;-67
2023/08/20 01:33:25;;;;;;;12.68;3.17;;;15.20;99.90;;;;;;5062461;28;20487;-66
2023/08/20 01:35:54;;;;;;;11.25;3.20;;;15.20;99.90;;;;;;5061362;28;20052;-66
2023/08/20 01:38:20;;;;;;;6.45;2.72;;;15.10;99.90;;;;;;5062065;28;20036;-66
2023/08/20 01:40:47;;;;;;;9.05;2.85;;;15.10;99.90;;;;;;5061527;28;20098;-66
2023/08/20 01:43:13;;;;;;;9.57;3.15;;;15.00;99.90;;;;;;5070448;28;20090;-67
2023/08/20 01:45:38;;;;;;;10.05;3.22;;;15.00;99.90;;;;;;5061977;28;20045;-66
2023/08/20 01:48:04;;;;;;;10.45;3.17;;;14.90;99.90;;;;;;5061011;28;20044;-66
2023/08/20 01:50:30;;;;;;;8.35;3.28;;;14.90;99.90;;;;;;5070334;28;20139;-67
2023/08/20 01:52:56;;;;;;;7.65;3.10;;;15.00;99.90;;;;;;5042271;28;20064;-66
2023/08/20 01:55:22;;;;;;;9.25;3.13;;;15.00;99.90;;;;;;5062611;28;20408;-66
2023/08/20 01:57:47;;;;;;;10.55;3.17;;;15.00;99.90;;;;;;5062628;28;20399;-67
2023/08/20 02:00:13;;;;;;;8.15;3.33;;;15.00;99.90;;;;;;5041538;28;20447;-68
2023/08/20 02:02:39;;;;;;;9.10;2.95;;;15.00;99.90;;;;;;5051343;28;20135;-67
2023/08/20 02:05:05;;;;;;;11.20;4.43;;;15.00;99.90;;;;;;5068234;28;20598;-66
2023/08/20 02:07:31;;;;;;;9.63;3.50;;;15.00;99.90;;;;;;5050547;28;20107;-67
2023/08/20 02:09:57;;;;;;;12.88;3.95;;;15.00;99.90;;;;;;5061850;28;20045;-66
2023/08/20 02:12:22;;;;;;;9.68;3.40;;;15.00;99.90;;;;;;5059836;28;20380;-67
2023/08/20 02:14:48;;;;;;;5.07;2.47;;;14.90;99.90;;;;;;5044615;28;20053;-67
2023/08/20 02:17:14;;;;;;;10.65;3.40;;;14.90;99.90;;;;;;5068994;28;20055;-66
2023/08/20 02:19:39;;;;;;;7.85;3.15;;;14.80;99.90;;;;;;5060568;28;20048;-66
2023/08/20 02:22:05;;;;;;;6.82;3.20;;;14.80;99.90;;;;;;5061027;28;20507;-66
2023/08/20 02:24:31;;;;;;;13.55;5.40;;;14.70;99.90;;;;;;5068092;28;20075;-67
2023/08/20 02:26:57;;;;;;;12.50;5.28;;;14.90;99.90;;;;;;5062680;28;20036;-66
2023/08/20 02:29:23;;;;;;;11.15;5.13;;;14.90;99.90;;;;;;5069318;28;20381;-66
2023/08/20 02:31:48;;;;;;;9.82;5.22;;;14.90;99.90;;;;;;5048384;28;20090;-67
2023/08/20 02:34:14;;;;;;;11.32;5.30;;;15.00;99.90;;;;;;5039585;28;20146;-67
2023/08/20 02:36:39;;;;;;;14.07;5.50;;;15.00;99.90;;;;;;5040676;28;20762;-67
2023/08/20 02:39:07;;;;;;;15.05;5.43;;;15.00;99.90;;;;;;5069495;28;20154;-66
2023/08/20 02:41:35;;;;;;;11.43;5.43;;;15.00;99.90;;;;;;5061409;28;20051;-66
2023/08/20 02:44:01;;;;;;;15.40;5.60;;;15.00;99.90;;;;;;5061002;28;20040;-67
2023/08/20 02:46:27;;;;;;;12.45;5.13;;;15.00;99.90;;;;;;5069058;28;20044;-66
2023/08/20 02:48:52;;;;;;;14.48;5.75;;;15.00;99.90;;;;;;5031891;28;20139;-66
2023/08/20 02:51:18;;;;;;;15.55;6.50;;;15.00;99.90;;;;;;5042551;28;20044;-67
2023/08/20 02:53:44;;;;;;;11.93;6.13;;;15.00;99.90;;;;;;5061068;28;20120;-66
2023/08/20 02:56:10;;;;;;;15.07;5.60;;;15.00;99.90;;;;;;5058616;28;20048;-66
2023/08/20 02:58:35;;;;;;;12.50;5.03;;;15.00;99.90;;;;;;5044841;28;20055;-66
2023/08/20 03:01:01;;;;;;;10.90;5.43;;;14.90;99.90;;;;;;5062516;28;20041;-67
2023/08/20 03:03:26;;;;;;;9.95;5.70;;;14.90;99.90;;;;;;5068729;28;20041;-67
2023/08/20 03:05:52;;;;;;;11.23;5.57;;;14.90;99.90;;;;;;5060404;28;20049;-66
2023/08/20 03:08:18;;;;;;;15.18;6.07;;;14.90;99.90;;;;;;5059163;28;20087;-66
2023/08/20 03:10:43;;;;;;;12.63;5.25;;;14.80;99.90;;;;;;5067212;28;20063;-66
2023/08/20 03:13:09;;;;;;;12.68;5.90;;;14.70;99.90;;;;;;5045561;28;20423;-66
2023/08/20 03:15:34;;;;;;;14.52;5.95;;;14.70;99.90;;;;;;5069248;28;20112;-66
2023/08/20 03:18:00;;;;;;;10.43;6.50;;;14.70;99.90;;;;;;5048147;28;20136;-66
2023/08/20 03:20:28;;;;;;;12.25;5.53;;;14.70;99.90;;;;;;5051257;28;20056;-66
2023/08/20 03:22:53;;;;;;;11.05;5.63;;;14.70;99.90;;;;;;5061207;28;20091;-65
2023/08/20 03:25:19;;;;;;;14.90;5.88;;;14.70;99.90;;;;;;5051669;28;20523;-66
2023/08/20 03:27:45;;;;;;;14.63;5.53;;;14.70;99.90;;;;;;5064339;28;20048;-66
2023/08/20 03:30:11;;;;;;;10.82;5.30;;;14.70;99.90;;;;;;5064469;28;20036;-66
2023/08/20 03:32:37;;;;;;;13.13;5.55;;;14.60;99.90;;;;;;5063955;28;20098;-66
2023/08/20 03:35:02;;;;;;;12.13;5.55;;;14.60;99.90;;;;;;5067237;28;20048;-66
2023/08/20 03:37:28;;;;;;;10.30;5.78;;;14.50;99.90;;;;;;5065401;28;20036;-66
2023/08/20 03:39:54;;;;;;;14.68;5.15;;;14.50;99.90;;;;;;5065782;28;20419;-66
2023/08/20 03:42:20;;;;;;;13.00;5.53;;;14.50;99.90;;;;;;5067754;28;20468;-65
2023/08/20 03:44:45;;;;;;;10.43;4.55;;;14.50;99.90;;;;;;5046605;28;20056;-66
2023/08/20 03:47:11;;;;;;;9.77;5.30;;;14.40;99.90;;;;;;5072264;28;20472;-66
2023/08/20 03:49:37;;;;;;;7.00;4.70;;;14.40;99.90;;;;;;5067778;28;20040;-66
2023/08/20 03:52:04;;;;;;;7.97;4.93;;;14.30;99.90;;;;;;5051977;28;20571;-66
2023/08/20 03:54:30;;;;;;;11.20;4.88;;;14.30;99.90;;;;;;5061367;28;20045;-66
2023/08/20 03:56:56;;;;;;;9.00;4.60;;;14.30;99.90;;;;;;5062963;28;20040;-66
2023/08/20 03:59:22;;;;;;;10.45;5.78;;;14.20;99.90;;;;;;5068607;28;20087;-66
2023/08/20 04:01:47;;;;;;;15.00;5.60;;;14.30;99.90;;;;;;5060842;28;20049;-66
2023/08/20 04:04:13;;;;;;;13.38;5.95;;;14.40;99.90;;;;;;5062709;28;20076;-66
2023/08/20 04:06:39;;;;;;;8.95;5.22;;;14.30;99.90;;;;;;5065700;28;20119;-66
2023/08/20 04:09:06;;;;;;;11.98;5.93;;;14.30;99.90;;;;;;5071344;28;20060;-66
2023/08/20 04:11:31;;;;;;;13.32;5.60;;;14.20;99.90;;;;;;5045576;28;20044;-66
2023/08/20 04:13:57;;;;;;;13.88;5.43;;;14.20;99.90;;;;;;5069292;28;20109;-66
2023/08/20 04:16:23;;;;;;;19.83;6.80;;;14.20;99.90;;;;;;5053792;28;20135;-65
2023/08/20 04:18:48;;;;;;;12.40;6.18;;;14.30;99.90;;;;;;5071613;28;20071;-67
2023/08/20 04:21:14;;;;;;;11.23;5.82;;;14.30;99.90;;;;;;5063725;28;20044;-66
2023/08/20 04:23:41;;;;;;;12.32;5.85;;;14.30;99.90;;;;;;5062496;28;20502;-66
2023/08/20 04:26:07;;;;;;;10.73;5.55;;;14.30;99.90;;;;;;5063879;28;20048;-66
2023/08/20 04:28:32;;;;;;;11.27;5.60;;;14.20;99.90;;;;;;5063355;28;20127;-65
2023/08/20 04:31:00;;;;;;;10.40;6.03;;;14.20;99.90;;;;;;5067212;28;20059;-66
2023/08/20 04:33:26;;;;;;;10.35;5.80;;;14.20;99.90;;;;;;5061764;28;20075;-66
2023/08/20 04:35:51;;;;;;;10.77;5.15;;;14.10;99.90;;;;;;5068751;28;20071;-66
2023/08/20 04:38:17;;;;;;;12.35;5.60;;;14.10;99.90;;;;;;5042316;28;20052;-66
2023/08/20 04:40:46;;;;;;;11.63;5.18;;;14.10;99.90;;;;;;5065551;28;20075;-66
2023/08/20 04:43:12;;;;;;;10.07;5.95;;;14.10;99.90;;;;;;5060102;28;20402;-66
2023/08/20 04:45:37;;;;;;;14.85;6.28;;;14.10;99.90;;;;;;5062033;28;20041;-65
2023/08/20 04:48:03;;;;;;;13.45;6.90;;;14.20;99.90;;;;;;5068933;28;20128;-66
2023/08/20 04:50:29;;;;;;;13.48;6.32;;;14.10;99.90;;;;;;5047497;28;20403;-65
2023/08/20 04:52:54;;;;;;;13.27;7.50;;;14.20;99.90;;;;;;5063130;28;20080;-65
2023/08/20 04:55:20;;;;;;;13.95;7.65;;;14.20;99.90;;;;;;5062353;28;20028;-66
2023/08/20 04:57:46;;;;;;;14.85;7.03;;;14.20;99.90;;;;;;5063214;28;20037;-66
2023/08/20 05:00:12;;;;;;;18.38;7.18;;;14.20;99.90;;;;;;5060989;28;20487;-65
2023/08/20 05:02:37;;;;;;;16.33;6.80;;;14.30;99.90;;;;;;5071330;28;20464;-66
2023/08/20 05:05:03;;;;;;;14.25;8.23;;;14.30;99.90;;;;;;5062666;28;20083;-65
2023/08/20 05:07:29;;;;;;;11.65;6.15;;;14.30;99.90;;;;;;5059638;28;20040;-65
2023/08/20 05:09:55;;;;;;;17.17;6.95;;;14.30;99.90;;;;;;5059151;28;20049;-65
2023/08/20 05:12:20;;;;;;;15.35;6.10;;;14.40;99.90;;;;;;5069170;28;20084;-65
2023/08/20 05:14:46;;;;;;;12.75;7.00;;;14.40;99.90;;;;;;5065709;28;20092;-65
2023/08/20 05:17:11;;;;;;;14.27;6.65;;;14.40;99.90;;;;;;5067287;28;20047;-65
2023/08/20 05:19:37;;;;;;;13.68;6.18;;;14.50;99.90;;;;;;5041656;28;20481;-65
2023/08/20 05:22:03;;;;;;;17.90;7.10;;;14.50;99.90;;;;;;5049190;28;20495;-65
2023/08/20 05:24:28;;;;;;;18.38;7.38;;;14.60;99.90;;;;;;5069206;28;20503;-65
2023/08/20 05:27:07;;;;;;;17.52;7.75;;;14.60;99.90;;;;;;5059004;28;20047;-65
2023/08/20 05:29:33;;;;;;;10.45;6.28;;;14.70;99.90;;;;;;5049384;28;20063;-66
2023/08/20 05:31:59;;;;;;;11.63;6.40;;;14.80;99.90;;;;;;5059364;28;20033;-64
2023/08/20 05:34:24;;;;;;;19.90;5.88;;;14.80;99.90;;;;;;5065287;28;20509;-65
2023/08/20 05:36:50;;;;;;;14.48;6.20;;;14.80;99.90;;;;;;5064872;28;20484;-65
2023/08/20 05:39:16;;;;;;;14.45;6.05;;;14.80;99.90;;;;;;5058707;28;20043;-65
2023/08/20 05:41:41;;;;;;;13.05;6.60;;;14.80;99.90;;;;;;5060780;28;20120;-65
2023/08/20 05:44:07;;;;;;;14.50;6.43;;;15.00;99.90;;;;;;5066903;28;20067;-66
2023/08/20 05:46:32;;;;;;;15.68;7.45;;;15.10;99.90;;;;;;5064118;28;20068;-67
2023/08/20 05:48:58;;;;;;;14.35;6.88;;;15.10;99.90;;;;;;5051811;28;20056;-67
2023/08/20 05:51:24;;;;;;;17.33;7.20;;;15.20;99.90;;;;;;5068764;28;20032;-66
2023/08/20 05:53:49;;;;;;;20.42;7.82;;;15.20;99.90;;;;;;5061426;28;20559;-65
2023/08/20 05:56:15;;;;;;;13.15;6.97;;;15.40;99.90;;;;;;5060611;28;20056;-65
2023/08/20 05:58:41;;;;;;;17.88;7.88;;;15.50;99.90;;;;;;5064607;28;20070;-69
2023/08/20 06:01:06;;;;;;;17.98;7.72;;;15.50;99.90;;;;;;5060136;28;20450;-67
2023/08/20 06:03:32;;;;;;;18.92;7.20;;;15.60;99.90;;;;;;5058482;28;20049;-67
2023/08/20 06:05:58;;;;;;;16.73;7.35;;;15.70;99.90;;;;;;5040508;28;20124;-68
2023/08/20 06:08:24;;;;;;;16.33;7.70;;;15.70;99.90;;;;;;5068802;28;20131;-67
2023/08/20 06:10:50;;;;;;;13.35;6.90;;;15.80;99.90;;;;;;5045952;28;20110;-66
2023/08/20 06:13:15;;;;;;;16.27;7.63;;;15.90;99.90;;;;;;5040900;28;20072;-66
2023/08/20 06:15:41;;;;;;;12.95;6.93;;;16.00;99.90;;;;;;5043569;28;20040;-67
2023/08/20 06:18:09;;;;;;;19.55;7.55;;;16.10;99.90;;;;;;5064800;28;20454;-66
2023/08/20 06:20:35;;;;;;;14.68;7.00;;;16.20;99.90;;;;;;5069448;28;20048;-67
2023/08/20 06:23:01;;;;;;;16.17;7.15;;;16.70;99.90;;;;;;5069809;28;20051;-66
2023/08/20 06:25:27;;;;;;;17.40;7.07;;;16.30;99.90;;;;;;5068811;28;20048;-67
2023/08/20 06:27:53;;;;;;;13.57;6.50;;;16.30;99.90;;;;;;5069433;28;20055;-66
2023/08/20 06:30:18;;;;;;;17.38;6.68;;;16.60;99.90;;;;;;5053863;28;20041;-66
2023/08/20 06:32:45;;;;;;;15.77;6.47;;;16.60;99.90;;;;;;5060120;28;20124;-71
2023/08/20 06:35:11;;;;;;;16.10;6.70;;;16.70;99.90;;;;;;5069161;28;20117;-69
2023/08/20 06:37:38;;;;;;;15.80;6.90;;;16.80;99.90;;;;;;5069276;28;20555;-67
2023/08/20 06:40:05;;;;;;;14.15;6.30;;;16.90;99.90;;;;;;5068088;28;20048;-67
2023/08/20 06:42:31;;;;;;;18.45;7.38;;;16.90;99.90;;;;;;5034815;28;20044;-66
2023/08/20 06:44:56;;;;;;;16.50;6.80;;;17.10;99.90;;;;;;5067647;28;20051;-70
2023/08/20 06:47:22;;;;;;;15.88;7.43;;;17.20;99.90;;;;;;5069384;28;20052;-68
2023/08/20 06:49:50;;;;;;;17.58;7.15;;;17.30;99.90;;;;;;5042413;28;20086;-66
2023/08/20 06:52:16;;;;;;;22.58;7.30;;;17.30;99.90;;;;;;5051201;28;20044;-67
2023/08/20 06:54:42;;;;;;;26.13;8.18;;;17.50;99.90;;;;;;5050703;28;20045;-66
2023/08/20 06:57:07;;;;;;;12.90;6.47;;;17.60;99.90;;;;;;5069032;28;20117;-67
2023/08/20 06:59:33;;;;;;;17.65;6.63;;;17.70;99.90;;;;;;5068264;28;20041;-66
2023/08/20 07:01:58;;;;;;;22.05;7.45;;;17.80;99.90;;;;;;5066927;28;20056;-66
2023/08/20 07:04:24;;;;;;;17.52;5.60;;;17.90;99.90;;;;;;5057952;28;20050;-66
2023/08/20 07:06:51;;;;;;;18.83;6.25;;;18.00;99.90;;;;;;5063412;28;20427;-66
2023/08/20 07:09:17;;;;;;;18.30;6.38;;;18.10;99.90;;;;;;5068725;28;20052;-66
2023/08/20 07:11:43;;;;;;;19.27;7.25;;;18.20;99.90;;;;;;5068557;28;20048;-66
2023/08/20 07:14:08;;;;;;;17.45;6.80;;;18.30;99.90;;;;;;5068666;28;20053;-66
2023/08/20 07:16:35;;;;;;;14.13;6.03;;;18.40;99.90;;;;;;5068484;28;20246;-65
2023/08/20 07:19:04;;;;;;;17.77;6.25;;;18.50;99.90;;;;;;5063821;28;20111;-66
2023/08/20 07:21:30;;;;;;;15.15;6.43;;;18.50;99.90;;;;;;5050872;28;20117;-66
2023/08/20 07:23:56;;;;;;;21.10;6.72;;;18.60;99.90;;;;;;5068773;28;20053;-67
2023/08/20 07:26:21;;;;;;;19.77;6.90;;;18.70;99.90;;;;;;5068577;28;20453;-66
2023/08/20 07:28:56;;;;;;;15.43;5.97;;;18.90;99.90;;;;;;5068581;28;20132;-67
2023/08/20 07:31:22;;;;;;;;;;;18.90;99.90;;;;;;5069019;28;20421;-66
2023/08/20 07:33:48;;;;;;;20.48;5.75;;;19.10;99.90;;;;;;5068522;28;19942;-67
2023/08/20 07:36:14;;;;;;;15.23;5.70;;;19.20;99.90;;;;;;5068616;28;20048;-66
2023/08/20 07:38:43;;;;;;;17.48;5.15;;;19.30;99.90;;;;;;5068571;28;20048;-65
2023/08/20 07:41:10;;;;;;;16.67;5.03;;;19.40;99.90;;;;;;5068448;28;20507;-67
2023/08/20 07:43:38;;;;;;;14.82;4.43;;;19.50;99.90;;;;;;5068799;28;20044;-66
2023/08/20 07:46:05;;;;;;;15.15;4.80;;;19.60;99.90;;;;;;5067835;28;20048;-66
2023/08/20 07:48:31;;;;;;;15.20;4.15;;;19.70;99.90;;;;;;5068392;28;20046;-67
2023/08/20 07:50:57;;;;;;;14.82;4.80;;;19.80;99.90;;;;;;5068405;28;20040;-67
2023/08/20 07:53:23;;;;;;;12.13;4.03;;;19.90;99.90;;;;;;5063730;28;20128;-67
2023/08/20 07:55:49;;;;;;;15.82;4.63;;;20.60;99.90;;;;;;5057005;28;20120;-66
2023/08/20 07:58:15;;;;;;;16.73;5.07;;;20.20;99.90;;;;;;5043932;28;20422;-66
2023/08/20 08:00:41;;;;;;;21.95;5.18;;;20.30;99.90;;;;;;5039417;28;20045;-67
2023/08/20 08:03:07;;;;;;;17.38;4.25;;;20.50;99.90;;;;;;5061869;28;20194;-67
2023/08/20 08:05:33;;;;;;;14.95;3.75;;;20.70;99.90;;;;;;5063968;28;20120;-67
2023/08/20 08:07:59;;;;;;;16.85;4.78;;;20.80;99.90;;;;;;5063837;28;20119;-67
2023/08/20 08:10:24;;;;;;;20.35;4.65;;;21.10;99.90;;;;;;5055446;28;20032;-67
2023/08/20 08:12:50;;;;;;;14.77;4.30;;;21.30;99.90;;;;;;5063688;28;20090;-66
2023/08/20 08:15:16;;;;;;;17.35;3.70;;;21.50;99.90;;;;;;5063875;28;20052;-67
2023/08/20 08:17:42;;;;;;;13.65;4.10;;;21.80;99.90;;;;;;5063438;28;20043;-67
2023/08/20 08:20:08;;;;;;;14.80;3.80;;;21.90;99.90;;;;;;5064479;28;20132;-67
2023/08/20 08:22:33;;;;;;;10.23;3.28;;;22.30;99.90;;;;;;5044273;28;20383;-67
2023/08/20 08:24:59;;;;;;;13.93;3.60;;;22.40;99.90;;;;;;5071162;28;20041;-66
2023/08/20 08:27:25;;;;;;;16.85;3.08;;;22.70;99.90;;;;;;5062927;28;20159;-67
2023/08/20 08:29:51;;;;;;;14.52;3.10;;;22.80;99.90;;;;;;5070983;28;20126;-69
2023/08/20 08:32:17;;;;;;;16.08;3.55;;;23.30;99.90;;;;;;5038696;28;20450;-68
2023/08/20 08:34:43;;;;;;;13.05;3.40;;;23.10;99.90;;;;;;5070266;28;20049;-71
2023/08/20 08:37:08;;;;;;;11.75;2.60;;;23.20;99.90;;;;;;5063453;28;20040;-66
2023/08/20 08:39:34;;;;;;;14.32;2.58;;;23.30;99.90;;;;;;5065468;28;20045;-68
2023/08/20 08:42:05;;;;;;;13.52;2.85;;;23.40;99.90;;;;;;5063150;28;20472;-68
2023/08/20 08:44:36;;;;;;;12.88;2.85;;;23.50;99.90;;;;;;5051316;28;20578;-68
2023/08/20 08:47:03;;;;;;;13.55;2.38;;;23.70;99.90;;;;;;5062925;28;20369;-69
2023/08/20 08:49:30;;;;;;;12.32;2.45;;;23.80;99.90;;;;;;5068659;28;20486;-68
2023/08/20 08:51:59;;;;;;;12.55;2.10;;;23.80;99.90;;;;;;5068839;28;20040;-69
2023/08/20 08:54:26;;;;;;;11.77;2.28;;;23.90;99.90;;;;;;5061898;28;20045;-67
2023/08/20 08:56:52;;;;;;;13.10;1.95;;;24.00;99.90;;;;;;5064488;28;20071;-69
2023/08/20 08:59:21;;;;;;;12.13;2.38;;;24.20;99.90;;;;;;5063166;28;20079;-68
2023/08/20 09:01:47;;;;;;;10.07;1.98;;;24.20;99.90;;;;;;5068075;28;20044;-69
2023/08/20 09:04:13;;;;;;;11.13;1.85;;;24.20;99.90;;;;;;5062559;28;20093;-69
2023/08/20 09:06:53;;;;;;;11.45;1.85;;;24.20;99.90;;;;;;5065101;28;21588;-68
2023/08/20 09:09:20;;;;;;;8.43;1.50;;;24.30;99.90;;;;;;5066969;28;20399;-67
2023/08/20 09:11:47;;;;;;;8.10;2.00;;;24.50;99.90;;;;;;5064733;28;20068;-69
2023/08/20 09:14:24;;;;;;;14.38;1.77;;;24.20;99.90;;;;;;5063965;28;20062;-67
2023/08/20 09:16:57;;;;;;;10.60;1.73;;;24.00;99.90;;;;;;5059644;28;20037;-65
2023/08/20 09:19:23;;;;;;;11.60;2.50;;;23.80;99.90;;;;;;5064510;28;20036;-66
2023/08/20 09:21:49;;;;;;;8.85;1.60;;;23.90;99.90;;;;;;5069228;28;20044;-66
2023/08/20 09:24:15;;;;;;;10.15;1.48;;;24.00;99.90;;;;;;5059584;28;20112;-66
2023/08/20 09:26:45;;;;;;;7.97;1.58;;;24.00;99.90;;;;;;5029999;28;20153;-68
2023/08/20 09:29:11;;;;;;;10.27;1.70;;;24.00;99.90;;;;;;5066272;28;20697;-67
2023/08/20 09:31:40;;;;;;;6.93;1.60;;;23.80;99.90;;;;;;5042588;28;20048;-66
2023/08/20 09:34:06;;;;;;;6.38;1.50;;;23.90;99.90;;;;;;5069373;28;20056;-69
2023/08/20 09:36:34;;;;;;;8.07;1.85;;;24.10;99.90;;;;;;5035201;28;20037;-69
2023/08/20 09:39:04;;;;;;;24.35;2.65;;;24.50;99.90;;;;;;5061819;28;20036;-69
2023/08/20 09:41:33;;;;;;;10.65;2.10;;;24.40;99.90;;;;;;5069794;28;20037;-69
2023/08/20 09:43:59;;;;;;;7.53;1.95;;;24.70;99.90;;;;;;5064325;28;20060;-69
2023/08/20 09:46:28;;;;;;;11.30;3.08;;;24.80;99.90;;;;;;5066451;28;20048;-70
2023/08/20 09:48:57;;;;;;;8.88;1.75;;;24.90;99.90;;;;;;5066678;28;20060;-68
2023/08/20 09:51:28;;;;;;;11.85;1.67;;;24.90;99.90;;;;;;5048288;28;20041;-69
2023/08/20 09:53:59;;;;;;;9.02;1.67;;;25.10;99.90;;;;;;5065284;28;20110;-69
2023/08/20 09:56:31;;;;;;;9.90;1.90;;;25.20;99.90;;;;;;5058863;28;20557;-69
2023/08/20 09:59:01;;;;;;;6.95;1.50;;;25.30;99.90;;;;;;5068566;28;20123;-69
2023/08/20 10:01:28;;;;;;;8.20;1.58;;;25.40;99.90;;;;;;5041160;28;20041;-69
2023/08/20 10:03:54;;;;;;;8.40;1.80;;;25.50;99.90;;;;;;5065454;28;20123;-68
2023/08/20 10:06:20;;;;;;;12.50;2.33;;;25.40;99.90;;;;;;5060030;28;20094;-69
2023/08/20 10:08:47;;;;;;;10.40;1.70;;;25.60;99.90;;;;;;5053749;28;20052;-68
2023/08/20 10:11:12;;;;;;;10.15;1.75;;;25.60;99.90;;;;;;5060219;28;20736;-68
2023/08/20 10:13:39;;;;;;;10.02;2.00;;;25.60;99.90;;;;;;5064711;28;20060;-69
2023/08/20 10:16:05;;;;;;;10.07;1.52;;;25.80;99.90;;;;;;5039551;28;20467;-68
2023/08/20 10:18:34;;;;;;;8.02;1.63;;;25.90;99.90;;;;;;5042199;28;20080;-69
2023/08/20 10:21:01;;;;;;;10.10;1.88;;;26.00;99.90;;;;;;5061233;28;20045;-69
2023/08/20 10:23:27;;;;;;;9.02;2.17;;;26.20;99.90;;;;;;5038872;28;20045;-68
2023/08/20 10:25:53;;;;;;;7.07;1.75;;;26.20;99.90;;;;;;5056455;28;20071;-68
2023/08/20 10:28:22;;;;;;;9.02;1.50;;;26.20;99.90;;;;;;5064719;28;20498;-68
2023/08/20 10:31:16;;;;;;;8.18;1.42;;;26.40;99.90;;;;;;5057334;28;20048;-69
2023/08/20 10:33:47;;;;;;;7.55;1.70;;;26.70;99.90;;;;;;5064627;28;20032;-68
2023/08/20 10:36:30;;;;;;;8.57;1.10;;;26.80;99.90;;;;;;5061688;28;20373;-67
2023/08/20 10:38:57;;;;;;;10.55;2.10;;;26.80;99.90;;;;;;5058547;28;20041;-67
2023/08/20 10:41:27;;;;;;;8.48;1.88;;;26.60;99.90;;;;;;5064564;28;20095;-67
2023/08/20 10:43:56;;;;;;;8.23;1.88;;;26.60;99.90;;;;;;5041910;28;20044;-69
2023/08/20 10:46:23;;;;;;;7.22;1.42;;;26.40;99.90;;;;;;5065458;28;20369;-69
2023/08/20 10:49:08;;;;;;;6.68;1.52;;;26.40;99.90;;;;;;5061318;28;20037;-68
2023/08/20 10:51:36;;;;;;;8.70;1.70;;;26.60;99.90;;;;;;5059478;28;20052;-68
2023/08/20 10:54:05;;;;;;;10.93;1.83;;;26.60;99.90;;;;;;5042777;28;20057;-69
2023/08/20 10:56:46;;;;;;;9.95;1.50;;;26.70;99.90;;;;;;5061610;28;20040;-69
2023/08/20 10:59:18;;;;;;;8.60;1.88;;;26.70;99.90;;;;;;5058755;28;20277;-69
2023/08/20 11:01:49;;;;;;;7.15;1.27;;;26.50;99.90;;;;;;5040505;28;20236;-69
2023/08/20 11:04:23;;;;;;;8.48;1.30;;;26.50;99.90;;;;;;5062598;28;20054;-67
2023/08/20 11:06:56;;;;;;;7.32;1.52;;;26.70;99.90;;;;;;5060918;28;20487;-68
2023/08/20 11:09:23;;;;;;;9.27;1.88;;;26.80;99.90;;;;;;5059335;28;20037;-69
2023/08/20 11:11:51;;;;;;;6.65;1.20;;;26.80;99.90;;;;;;5053918;28;20070;-68
2023/08/20 11:14:19;;;;;;;7.13;1.15;;;26.90;99.90;;;;;;5067696;28;20053;-68
2023/08/20 11:16:46;;;;;;;6.20;1.13;;;26.80;99.90;;;;;;5063152;28;20498;-69
2023/08/20 11:19:13;;;;;;;9.25;1.63;;;26.80;99.90;;;;;;5062264;28;20127;-69
2023/08/20 11:21:42;;;;;;;5.20;1.00;;;26.60;99.90;;;;;;5045319;28;20036;-69
2023/08/20 11:24:09;;;;;;;6.22;1.08;;;26.70;99.90;;;;;;5062578;28;20045;-67
2023/08/20 11:26:35;;;;;;;6.80;1.23;;;26.70;99.90;;;;;;5056705;28;20044;-70
2023/08/20 11:29:06;;;;;;;3.92;1.25;;;26.70;99.90;;;;;;5063309;28;20045;-67
2023/08/20 11:31:31;;;;;;;5.80;1.17;;;27.00;99.90;;;;;;5067122;28;20037;-69
2023/08/20 11:33:57;;;;;;;7.35;1.23;;;27.10;99.90;;;;;;5063131;28;20110;-68
2023/08/20 11:36:23;;;;;;;6.88;1.23;;;27.20;99.90;;;;;;5067804;28;20083;-67
2023/08/20 11:38:53;;;;;;;7.30;1.20;;;27.20;99.90;;;;;;5061598;28;20089;-69
2023/08/20 11:41:20;;;;;;;7.85;1.38;;;27.30;99.90;;;;;;5070653;28;20080;-68
2023/08/20 11:43:49;;;;;;;8.38;0.98;;;27.30;99.90;;;;;;5044934;28;20059;-68
2023/08/20 11:46:17;;;;;;;6.07;1.10;;;27.20;99.90;;;;;;5064064;28;20163;-68
2023/08/20 11:49:26;;;;;;;6.55;1.40;;;27.30;99.90;;;;;;5068259;28;20048;-68
2023/08/20 11:51:52;;;;;;;7.63;1.60;;;27.40;99.90;;;;;;4976000;28;20055;-69
2023/08/20 11:54:18;;;;;;;6.45;1.20;;;27.50;99.90;;;;;;4961475;28;20054;-69
2023/08/20 11:56:51;;;;;;;8.00;1.45;;;27.50;99.90;;;;;;4975099;28;20078;-69
2023/08/20 11:59:21;;;;;;;6.18;1.27;;;27.50;99.90;;;;;;4983801;28;20073;-68
2023/08/20 12:01:56;;;;;;;7.15;1.23;;;27.20;99.90;;;;;;4986262;28;20042;-69
2023/08/20 12:04:25;;;;;;;11.05;1.83;;;27.30;99.90;;;;;;4981487;28;20091;-69
2023/08/20 12:07:08;;;;;;;10.35;2.05;;;27.40;99.90;;;;;;4981500;28;20158;-67
2023/08/20 12:09:35;;;;;;;12.98;1.40;;;27.50;99.90;;;;;;4979533;28;20410;-69
2023/08/20 12:12:01;;;;;;;6.93;1.50;;;27.60;99.90;;;;;;4961798;28;20090;-68
2023/08/20 12:14:27;;;;;;;9.10;1.48;;;27.60;99.90;;;;;;4971724;28;20054;-70
2023/08/20 12:16:56;;;;;;;9.73;1.40;;;27.50;99.90;;;;;;4952936;28;20051;-70
2023/08/20 12:19:21;;;;;;;8.65;1.45;;;27.30;99.90;;;;;;4957381;28;20091;-69
2023/08/20 12:21:48;;;;;;;5.25;1.10;;;27.20;99.90;;;;;;4976930;28;20079;-68
2023/08/20 12:24:14;;;;;;;7.57;1.10;;;27.40;99.90;;;;;;4978822;28;20617;-69
2023/08/20 12:26:40;;;;;;;5.25;1.10;;;27.40;99.90;;;;;;5052536;28;20052;-70
2023/08/20 12:29:06;;;;;;;5.53;1.33;;;27.60;99.90;;;;;;5061314;28;20049;-68
2023/08/20 12:31:33;;;;;;;7.30;1.30;;;27.60;99.90;;;;;;5071595;28;20793;-68
2023/08/20 12:33:59;;;;;;;5.13;1.20;;;27.60;99.90;;;;;;5071324;28;20101;-69
2023/08/20 12:36:24;;;;;;;7.93;1.55;;;27.60;99.90;;;;;;5071288;28;20032;-68
2023/08/20 12:38:51;;;;;;;5.78;1.10;;;27.50;99.90;;;;;;5072689;28;20502;-71
2023/08/20 12:41:19;;;;;;;6.35;1.25;;;27.40;99.90;;;;;;5065646;28;20044;-68